createdAt,value
2017-06-11T00:06:09.979Z,0
2017-06-11T00:16:23.916Z,0
2017-06-11T00:26:38.297Z,0
2017-06-11T00:36:53.697Z,0
2017-06-11T00:47:08.367Z,0
2017-06-11T00:57:23.263Z,0
2017-06-11T01:07:38.265Z,0
2017-06-11T01:17:53.564Z,0
2017-06-11T01:28:08.089Z,0
2017-06-11T01:38:23.007Z,0
2017-06-11T01:48:37.973Z,0
2017-06-11T01:58:53.725Z,0
2017-06-11T02:09:08.832Z,0
2017-06-11T02:19:23.454Z,0
2017-06-11T02:29:38.913Z,0
2017-06-11T02:39:53.166Z,0
2017-06-11T02:50:08.781Z,0
2017-06-11T03:00:23.014Z,5
2017-06-11T03:10:38.570Z,10
2017-06-11T03:20:54.233Z,20
2017-06-11T03:31:08.692Z,35
2017-06-11T03:41:24.348Z,60
2017-06-11T03:51:39.938Z,75
2017-06-11T04:01:54.391Z,75
2017-06-11T04:12:08.921Z,125
2017-06-11T04:22:24.087Z,170
2017-06-11T04:32:38.907Z,180
2017-06-11T04:42:52.924Z,205
2017-06-11T04:53:08.222Z,225
2017-06-11T05:03:23.778Z,315
2017-06-11T05:13:37.782Z,305
2017-06-11T05:23:52.874Z,325
2017-06-11T05:34:08.459Z,365
2017-06-11T05:44:23.038Z,330
2017-06-11T05:54:37.233Z,280
2017-06-11T06:04:52.976Z,385
2017-06-11T06:15:08.788Z,360
2017-06-11T06:25:23.194Z,420
2017-06-11T06:35:37.022Z,525
2017-06-11T06:45:50.976Z,635
2017-06-11T06:56:05.843Z,635
2017-06-11T07:06:20.455Z,690
2017-06-11T07:16:34.925Z,1480
2017-06-11T07:26:50.671Z,1205
2017-06-11T07:37:05.004Z,995
2017-06-11T07:47:18.986Z,1555
2017-06-11T07:57:34.310Z,1465
2017-06-11T08:07:48.702Z,1460
2017-06-11T08:18:03.845Z,1815
2017-06-11T08:28:18.571Z,1940
2017-06-11T08:38:33.057Z,1735
2017-06-11T08:48:48.393Z,1910
2017-06-11T08:59:02.416Z,1950
2017-06-11T09:09:16.979Z,1965
2017-06-11T09:19:32.700Z,1515
2017-06-11T09:29:48.470Z,1520
2017-06-11T09:40:04.102Z,1480
2017-06-11T09:50:19.746Z,1615
2017-06-11T10:00:34.194Z,1730
2017-06-11T10:10:49.252Z,2075
2017-06-11T10:21:04.034Z,1445
2017-06-11T10:31:19.129Z,1660
2017-06-11T10:41:34.353Z,1755
2017-06-11T10:51:49.666Z,1515
2017-06-11T11:02:03.637Z,2470
2017-06-11T11:12:17.796Z,2050
2017-06-11T11:22:32.771Z,1345
2017-06-11T11:32:47.141Z,1915
2017-06-11T11:43:01.242Z,1555
2017-06-11T11:53:15.836Z,2415
2017-06-11T12:03:30.305Z,1385
2017-06-11T12:13:44.979Z,1320
2017-06-11T12:23:59.307Z,1480
2017-06-11T12:34:13.739Z,2130
2017-06-11T12:44:29.253Z,1195
2017-06-11T12:54:44.688Z,1180
2017-06-11T13:05:00.507Z,800
2017-06-11T13:15:14.896Z,750
2017-06-11T13:25:28.890Z,790
2017-06-11T13:35:44.640Z,690
2017-06-11T13:45:58.745Z,630
2017-06-11T13:56:14.075Z,850
2017-06-11T14:06:28.466Z,435
2017-06-11T14:16:43.528Z,380
2017-06-11T14:26:57.873Z,290
2017-06-11T14:37:12.428Z,300
2017-06-11T14:47:28.055Z,300
2017-06-11T14:57:42.241Z,385
2017-06-11T15:07:56.171Z,505
2017-06-11T15:18:10.599Z,310
2017-06-11T15:28:24.734Z,710
2017-06-11T15:38:39.787Z,830
2017-06-11T15:48:54.380Z,405
2017-06-11T15:59:09.685Z,485
2017-06-11T16:09:24.988Z,360
2017-06-11T16:19:40.343Z,400
2017-06-11T16:29:54.969Z,360
2017-06-11T16:40:10.834Z,410
2017-06-11T16:50:25.801Z,345
2017-06-11T17:00:40.819Z,180
2017-06-11T17:10:56.090Z,245
2017-06-11T17:21:10.320Z,310
2017-06-11T17:31:25.862Z,250
2017-06-11T17:41:40.040Z,220
2017-06-11T17:51:53.934Z,50
2017-06-11T18:02:08.658Z,85
2017-06-11T18:12:23.424Z,140
2017-06-11T18:22:37.297Z,210
2017-06-11T18:32:51.291Z,100
2017-06-11T18:43:05.549Z,75
2017-06-11T18:53:20.477Z,130
2017-06-11T19:03:35.339Z,40
2017-06-11T19:13:50.884Z,40
2017-06-11T19:24:05.367Z,15
2017-06-11T19:34:20.388Z,5
2017-06-11T19:44:34.350Z,0
2017-06-11T19:54:48.604Z,0
2017-06-11T20:05:03.683Z,0
2017-06-11T20:15:17.536Z,0
2017-06-11T20:25:31.400Z,0
2017-06-11T20:35:45.684Z,0
2017-06-11T20:45:59.582Z,0
2017-06-11T20:56:14.034Z,0
2017-06-11T21:06:28.606Z,0
2017-06-11T21:16:44.328Z,0
2017-06-11T21:26:58.766Z,0
2017-06-11T21:37:13.775Z,0
2017-06-11T21:47:28.040Z,0
2017-06-11T21:57:43.199Z,0
2017-06-11T22:07:58.517Z,0
2017-06-11T22:18:12.860Z,0
2017-06-11T22:28:28.163Z,0
2017-06-11T22:38:43.426Z,0
2017-06-11T22:48:58.791Z,0
2017-06-11T22:59:14.415Z,0
2017-06-11T23:09:29.656Z,0
2017-06-11T23:19:44.448Z,0
2017-06-11T23:29:58.268Z,0
2017-06-11T23:40:13.927Z,0
2017-06-11T23:50:29.623Z,0
